Juan de Fuca Strait - east entrance: Past 24 Hour Conditions

 

Victoria Int'l Airport

08:00 PM PDT 19 April 2014
This table is a summary of hourly weather conditions for the past 24 hours.
Date / Time
(PDT)
Wind(knots) Conditions Visibility(km) Pressure(kPa) Air tempC) Relative humidity(%) Dew pointC)
19 April 2014
20:00 SSW 12 Partly Cloudy 48 101.5 9 78 6
19:00 SW 15 Mainly Sunny 48 101.4 11 70 6
18:00 SSW 9 Partly Cloudy 48 101.3 12 75 7
17:00 SSW 6 Light Rain 48 101.2 11 81 8
16:00 SSE 9 gust 15 Light Rain 48 101.1 10 81 7
15:00 SSE 8 Light Rain 48 101.0 11 82 8
14:00 E 7 Light Rain 32 101.0 9 82 6
13:00 SE 4 Light Rain 48 100.9 9 71 4
12:00 ESE 6 Mostly Cloudy 48 100.8 9 63 3
11:00 SSE 2 Mostly Cloudy 48 100.8 10 68 4
10:00 ENE 3 Mostly Cloudy 48 100.9 9 73 4
9:00 NE 7 Cloudy 48 100.9 8 77 5
8:00 ENE 2 Mostly Cloudy 48 100.9 8 82 5
7:00 E 5 Cloudy 48 100.9 7 83 5
6:00 W 2 Cloudy 48 101.0 7 87 5
5:00 WNW 5 Cloudy 48 101.0 7 89 5
4:00 N 1 Cloudy 48 101.0 7 88 5
3:00 W 2 Cloudy 48 101.1 6 92 5
2:00 WSW 4 Mostly Cloudy 48 101.2 5 95 4
1:00 W 2 Mostly Cloudy 48 101.3 6 90 4
0:00 WSW 3 Mostly Cloudy 48 101.4 5 93 4
18 April 2014
23:00 N 1 Mostly Cloudy 48 101.4 5 90 3
22:00 NNE 3 Mostly Cloudy 48 101.5 6 84 4
21:00 ESE 4 Cloudy 48 101.6 9 72 4
20:00 SE 6 Cloudy 48 101.6 10 69 4
 
Map of Pacific - Georgia Basin marine weather areas Tsawwassen Ferry Terminal Sentry Shoal - 46131 Halibut Bank - 46146 La Perouse Bank - 46206 Discovery Island Esquimalt Harbour Kelp Reefs Malahat Race Rocks Lightstation Saturna Island Sheringham Point University of Victoria Victoria Gonzales Victoria Int'l Airport Ballenas Islands Campbell River Airport Comox Airport Entrance Island Fanny Island Nanaimo Airport Sisters Islets Estevan Point Tofino Airport Grief Point Powell River Airport Sechelt Point Atkinson Sand Heads Lightstation Vancouver Harbour Vancouver Int'l Airport West Vancouver Port Alberni Howe Sound - Pam Rocks Squamish Airport